createdAt,value
2018-08-27T00:02:04.905Z,22.87
2018-08-27T00:04:33.934Z,22.85
2018-08-27T00:07:03.069Z,22.84
2018-08-27T00:09:32.023Z,22.77
2018-08-27T00:12:01.105Z,22.72
2018-08-27T00:14:30.099Z,22.71
2018-08-27T00:16:59.100Z,22.65
2018-08-27T00:19:28.286Z,22.59
2018-08-27T00:21:57.376Z,22.55
2018-08-27T00:24:26.528Z,22.53
2018-08-27T00:26:55.544Z,22.44
2018-08-27T00:29:24.504Z,22.41
2018-08-27T00:31:53.592Z,22.34
2018-08-27T00:34:22.544Z,22.31
2018-08-27T00:36:51.568Z,22.24
2018-08-27T00:39:20.512Z,22.20
2018-08-27T00:41:49.530Z,22.17
2018-08-27T00:44:18.488Z,22.11
2018-08-27T00:46:47.493Z,22.07
2018-08-27T00:49:16.513Z,22.04
2018-08-27T00:51:45.529Z,22.02
2018-08-27T00:54:14.483Z,21.99
2018-08-27T00:56:43.529Z,21.97
2018-08-27T00:59:12.657Z,21.95
2018-08-27T01:01:41.592Z,21.91
2018-08-27T01:04:10.603Z,21.86
2018-08-27T01:06:39.578Z,21.83
2018-08-27T01:09:08.854Z,21.73
2018-08-27T01:11:38.005Z,21.71
2018-08-27T01:14:07.128Z,21.66
2018-08-27T01:16:36.249Z,21.62
2018-08-27T01:19:05.252Z,21.61
2018-08-27T01:21:34.200Z,21.59
2018-08-27T01:24:03.317Z,21.57
2018-08-27T01:26:32.312Z,21.57
2018-08-27T01:29:01.501Z,21.53
2018-08-27T01:31:30.446Z,21.51
2018-08-27T01:33:59.519Z,21.45
2018-08-27T01:36:28.529Z,21.46
2018-08-27T01:38:57.573Z,21.45
2018-08-27T01:41:26.597Z,21.42
2018-08-27T01:43:55.601Z,21.41
2018-08-27T01:46:24.604Z,21.40
2018-08-27T01:48:53.617Z,21.41
2018-08-27T01:51:22.636Z,21.41
2018-08-27T01:53:51.633Z,21.39
2018-08-27T01:56:20.637Z,21.38
2018-08-27T01:58:50.396Z,21.33
2018-08-27T02:01:21.085Z,21.25
2018-08-27T02:03:50.055Z,21.23
2018-08-27T02:06:19.108Z,21.22
2018-08-27T02:08:48.116Z,21.20
2018-08-27T02:11:17.120Z,21.16
2018-08-27T02:13:46.129Z,21.17
2018-08-27T02:16:15.075Z,21.18
2018-08-27T02:18:44.079Z,21.15
2018-08-27T02:21:13.093Z,21.18
2018-08-27T02:23:42.039Z,21.08
2018-08-27T02:26:11.056Z,21.06
2018-08-27T02:28:39.988Z,21.04
2018-08-27T02:31:08.992Z,21.05
2018-08-27T02:33:38.012Z,21.08
2018-08-27T02:36:07.020Z,21.06
2018-08-27T02:38:36.036Z,21.05
2018-08-27T02:41:05.051Z,20.97
2018-08-27T02:43:34.133Z,20.96
2018-08-27T02:46:03.166Z,20.97
2018-08-27T02:48:32.112Z,20.99
2018-08-27T02:51:01.104Z,20.98
2018-08-27T02:53:30.103Z,20.91
2018-08-27T02:55:59.160Z,20.87
2018-08-27T02:58:28.096Z,20.85
2018-08-27T03:00:57.166Z,20.83
2018-08-27T03:03:26.165Z,20.82
2018-08-27T03:05:55.108Z,20.80
2018-08-27T03:08:24.060Z,20.78
2018-08-27T03:10:52.996Z,20.72
2018-08-27T03:13:22.009Z,20.73
2018-08-27T03:15:51.019Z,20.71
2018-08-27T03:18:20.163Z,20.65
2018-08-27T03:20:49.067Z,20.65
2018-08-27T03:23:18.097Z,20.64
2018-08-27T03:25:47.081Z,20.59
2018-08-27T03:28:16.027Z,20.54
2018-08-27T03:30:45.081Z,20.50
2018-08-27T03:33:14.353Z,20.50
2018-08-27T03:35:43.308Z,20.49
2018-08-27T03:38:12.353Z,20.41
2018-08-27T03:40:41.319Z,20.40
2018-08-27T03:43:10.288Z,20.42
2018-08-27T03:45:39.279Z,20.43
2018-08-27T03:48:09.372Z,20.43
2018-08-27T03:50:38.824Z,20.43
2018-08-27T03:53:07.764Z,20.45
2018-08-27T03:55:36.775Z,20.40
2018-08-27T03:58:06.053Z,20.39
2018-08-27T04:00:35.058Z,20.38
2018-08-27T04:03:04.396Z,20.37
2018-08-27T04:05:33.421Z,20.40
2018-08-27T04:08:02.424Z,20.44
2018-08-27T04:10:31.449Z,20.52
2018-08-27T04:13:00.403Z,20.57
2018-08-27T04:15:29.510Z,20.62
2018-08-27T04:17:58.591Z,20.72
2018-08-27T04:20:27.601Z,20.80
2018-08-27T04:22:56.560Z,20.90
2018-08-27T04:25:25.564Z,20.97
2018-08-27T04:27:54.681Z,21.01
2018-08-27T04:30:23.690Z,21.05
2018-08-27T04:32:52.701Z,21.19
2018-08-27T04:35:21.712Z,21.36
2018-08-27T04:37:50.716Z,21.50
2018-08-27T04:40:19.751Z,21.56
2018-08-27T04:42:48.692Z,21.52
2018-08-27T04:45:17.723Z,21.60
2018-08-27T04:47:46.675Z,21.57
2018-08-27T04:50:15.696Z,21.53
2018-08-27T04:52:44.741Z,21.51
2018-08-27T04:55:13.768Z,21.55
2018-08-27T04:57:42.786Z,21.58
2018-08-27T05:00:16.852Z,21.62
2018-08-27T05:02:45.828Z,21.71
2018-08-27T05:05:14.784Z,21.81
2018-08-27T05:07:43.896Z,21.89
2018-08-27T05:10:12.945Z,21.98
2018-08-27T05:12:41.949Z,22.10
2018-08-27T05:15:10.944Z,22.19
2018-08-27T05:17:39.945Z,22.31
2018-08-27T05:20:09.041Z,22.35
2018-08-27T05:22:38.069Z,22.43
2018-08-27T05:25:07.367Z,22.45
2018-08-27T05:27:36.397Z,22.53
2018-08-27T05:30:05.465Z,22.58
2018-08-27T05:32:34.451Z,22.56
2018-08-27T05:35:03.578Z,22.57
2018-08-27T05:37:32.564Z,22.62
2018-08-27T05:40:01.639Z,22.72
2018-08-27T05:42:30.737Z,22.82
2018-08-27T05:44:59.742Z,22.93
2018-08-27T05:47:28.777Z,22.98
2018-08-27T05:49:57.821Z,23.04
2018-08-27T05:52:26.797Z,23.18
2018-08-27T05:54:55.836Z,23.21
2018-08-27T05:57:24.797Z,23.28
2018-08-27T05:59:53.892Z,23.34
2018-08-27T06:02:22.841Z,23.42
2018-08-27T06:04:51.824Z,23.53
2018-08-27T06:07:20.813Z,23.58
2018-08-27T06:09:49.869Z,23.62
2018-08-27T06:12:18.860Z,23.77
2018-08-27T06:14:47.879Z,23.87
2018-08-27T06:17:17.064Z,23.95
2018-08-27T06:19:45.976Z,23.89
2018-08-27T06:22:15.184Z,23.69
2018-08-27T06:24:44.135Z,23.51
2018-08-27T06:27:13.116Z,23.52
2018-08-27T06:29:42.177Z,23.60
2018-08-27T06:32:11.262Z,23.78
2018-08-27T06:34:40.372Z,24.03
2018-08-27T06:37:09.413Z,24.20
2018-08-27T06:39:38.404Z,24.56
2018-08-27T06:42:07.552Z,24.82
2018-08-27T06:44:36.611Z,25.07
2018-08-27T06:47:05.969Z,25.40
2018-08-27T06:49:34.933Z,25.77
2018-08-27T06:52:03.979Z,26.20
2018-08-27T06:54:32.993Z,26.54
2018-08-27T06:57:01.961Z,26.83
2018-08-27T06:59:31.552Z,27.15
2018-08-27T07:02:00.566Z,27.20
2018-08-27T07:04:29.659Z,27.50
2018-08-27T07:06:58.608Z,27.66
2018-08-27T07:09:27.688Z,27.64
2018-08-27T07:11:56.648Z,27.86
2018-08-27T07:14:25.732Z,27.82
2018-08-27T07:16:54.779Z,28.00
2018-08-27T07:19:23.720Z,28.14
2018-08-27T07:21:52.693Z,28.32
2018-08-27T07:24:21.757Z,28.28
2018-08-27T07:26:50.772Z,28.36
2018-08-27T07:29:19.776Z,28.20
2018-08-27T07:31:48.794Z,28.34
2018-08-27T07:34:17.748Z,28.17
2018-08-27T07:36:46.672Z,28.38
2018-08-27T07:39:15.685Z,27.91
2018-08-27T07:41:44.781Z,28.12
2018-08-27T07:44:13.851Z,28.52
2018-08-27T07:46:42.849Z,28.62
2018-08-27T07:49:11.889Z,28.92
2018-08-27T07:51:41.010Z,29.02
2018-08-27T07:54:10.210Z,29.17
2018-08-27T07:56:39.253Z,29.40
2018-08-27T07:59:08.593Z,29.44
2018-08-27T08:01:37.630Z,29.51
2018-08-27T08:04:06.639Z,29.51
2018-08-27T08:06:35.653Z,29.49
2018-08-27T08:09:06.167Z,29.44
2018-08-27T08:11:35.116Z,29.57
2018-08-27T08:14:04.167Z,29.81
2018-08-27T08:16:33.335Z,29.86
2018-08-27T08:19:02.834Z,29.84
2018-08-27T08:21:31.784Z,29.84
2018-08-27T08:24:00.851Z,29.98
2018-08-27T08:26:29.817Z,30.02
2018-08-27T08:28:58.890Z,29.84
2018-08-27T08:31:28.028Z,30.02
2018-08-27T08:33:56.984Z,30.17
2018-08-27T08:36:25.974Z,30.34
2018-08-27T08:38:54.945Z,30.54
2018-08-27T08:41:23.904Z,30.34
2018-08-27T08:43:52.887Z,30.35
2018-08-27T08:46:21.881Z,30.56
2018-08-27T08:48:50.921Z,30.37
2018-08-27T08:51:19.868Z,30.40
2018-08-27T08:53:48.948Z,30.70
2018-08-27T08:56:17.932Z,30.88
2018-08-27T08:58:46.913Z,31.10
2018-08-27T09:01:15.967Z,31.17
2018-08-27T09:03:45.037Z,31.08
2018-08-27T09:06:14.086Z,30.65
2018-08-27T09:08:43.082Z,30.67
2018-08-27T09:11:12.109Z,30.49
2018-08-27T09:13:41.141Z,30.13
2018-08-27T09:16:10.136Z,30.11
2018-08-27T09:18:39.102Z,30.40
2018-08-27T09:21:08.041Z,30.81
2018-08-27T09:23:37.093Z,31.34
2018-08-27T09:26:06.024Z,31.36
2018-08-27T09:28:34.968Z,31.38
2018-08-27T09:31:04.001Z,31.34
2018-08-27T09:33:32.935Z,30.88
2018-08-27T09:36:01.998Z,30.57
2018-08-27T09:38:31.064Z,30.79
2018-08-27T09:41:00.190Z,31.09
2018-08-27T09:43:29.164Z,31.16
2018-08-27T09:45:58.164Z,31.20
2018-08-27T09:48:27.103Z,31.37
2018-08-27T09:50:56.041Z,31.55
2018-08-27T09:53:25.069Z,31.41
2018-08-27T09:55:54.017Z,31.46
2018-08-27T09:58:23.051Z,31.41
2018-08-27T10:00:57.134Z,31.47
2018-08-27T10:03:26.188Z,31.11
2018-08-27T10:05:55.152Z,31.33
2018-08-27T10:08:24.194Z,31.49
2018-08-27T10:10:53.208Z,31.57
2018-08-27T10:13:22.290Z,31.78
2018-08-27T10:15:51.335Z,31.91
2018-08-27T10:18:20.354Z,31.99
2018-08-27T10:20:49.440Z,32.26
2018-08-27T10:23:18.456Z,32.42
2018-08-27T10:25:47.426Z,32.49
2018-08-27T10:28:16.424Z,32.64
2018-08-27T10:30:45.381Z,32.71
2018-08-27T10:33:14.348Z,32.89
2018-08-27T10:35:43.372Z,33.06
2018-08-27T10:38:12.534Z,33.27
2018-08-27T10:40:41.590Z,33.63
2018-08-27T10:43:10.588Z,33.99
2018-08-27T10:45:39.638Z,34.32
2018-08-27T10:48:08.645Z,34.58
2018-08-27T10:50:37.608Z,34.40
2018-08-27T10:53:06.969Z,34.36
2018-08-27T10:55:36.004Z,34.29
2018-08-27T10:58:04.956Z,34.56
2018-08-27T11:00:33.916Z,35.02
2018-08-27T11:03:02.881Z,35.86
2018-08-27T11:05:31.858Z,36.45
2018-08-27T11:08:00.934Z,37.09
2018-08-27T11:10:29.985Z,36.60
2018-08-27T11:12:59.010Z,36.36
2018-08-27T11:15:28.077Z,36.42
2018-08-27T11:17:57.035Z,37.14
2018-08-27T11:20:26.135Z,37.42
2018-08-27T11:22:54.991Z,37.80
2018-08-27T11:25:23.948Z,38.30
2018-08-27T11:27:52.998Z,38.14
2018-08-27T11:30:22.147Z,38.58
2018-08-27T11:32:51.137Z,38.54
2018-08-27T11:35:20.172Z,39.04
2018-08-27T11:37:49.197Z,38.76
2018-08-27T11:40:18.158Z,39.09
2018-08-27T11:42:47.131Z,38.71
2018-08-27T11:45:16.083Z,38.74
2018-08-27T11:47:45.148Z,39.06
2018-08-27T11:50:14.185Z,38.78
2018-08-27T11:52:43.164Z,39.00
2018-08-27T11:55:12.225Z,38.10
2018-08-27T11:57:41.309Z,37.11
2018-08-27T12:00:15.553Z,36.33
2018-08-27T12:02:44.585Z,35.86
2018-08-27T12:05:13.682Z,35.89
2018-08-27T12:07:42.731Z,36.51
2018-08-27T12:10:11.693Z,36.67
2018-08-27T12:12:40.668Z,35.83
2018-08-27T12:15:09.624Z,35.33
2018-08-27T12:17:38.640Z,34.92
2018-08-27T12:20:07.652Z,35.46
2018-08-27T12:22:36.726Z,36.17
2018-08-27T12:25:06.081Z,36.93
2018-08-27T12:27:35.052Z,37.36
2018-08-27T12:30:04.081Z,37.44
2018-08-27T12:32:33.151Z,38.32
2018-08-27T12:35:02.116Z,38.74
2018-08-27T12:37:31.065Z,39.11
2018-08-27T12:40:00.172Z,39.36
2018-08-27T12:42:29.171Z,39.70
2018-08-27T12:44:58.149Z,39.65
2018-08-27T12:47:27.222Z,40.10
2018-08-27T12:49:56.234Z,40.13
2018-08-27T12:52:25.297Z,40.28
2018-08-27T12:54:54.517Z,39.69
2018-08-27T12:57:23.848Z,39.70
2018-08-27T12:59:53.123Z,39.88
2018-08-27T13:02:22.406Z,40.11
2018-08-27T13:04:51.949Z,39.92
2018-08-27T13:07:21.254Z,39.29
2018-08-27T13:09:50.563Z,38.80
2018-08-27T13:12:19.865Z,37.89
2018-08-27T13:14:49.265Z,37.20
2018-08-27T13:17:18.533Z,36.36
2018-08-27T13:19:47.804Z,35.29
2018-08-27T13:22:17.093Z,34.49
2018-08-27T13:24:46.393Z,34.13
2018-08-27T13:27:15.783Z,33.76
2018-08-27T13:29:45.070Z,33.62
2018-08-27T13:32:14.378Z,33.55
2018-08-27T13:34:43.693Z,33.42
2018-08-27T13:37:13.105Z,33.41
2018-08-27T13:39:42.372Z,33.08
2018-08-27T13:42:11.647Z,32.93
2018-08-27T13:44:41.002Z,32.92
2018-08-27T13:47:10.298Z,33.01
2018-08-27T13:49:39.583Z,32.97
2018-08-27T13:52:09.104Z,33.01
2018-08-27T13:54:38.368Z,32.86
2018-08-27T13:57:07.667Z,32.87
2018-08-27T13:59:36.922Z,32.65
2018-08-27T14:02:06.256Z,32.11
2018-08-27T14:04:35.253Z,31.70
2018-08-27T14:07:04.176Z,31.49
2018-08-27T14:09:33.187Z,31.44
2018-08-27T14:12:02.149Z,31.22
2018-08-27T14:14:31.189Z,30.76
2018-08-27T14:17:00.264Z,30.63
2018-08-27T14:19:29.462Z,30.70
2018-08-27T14:21:58.518Z,30.83
2018-08-27T14:24:27.603Z,30.81
2018-08-27T14:26:56.592Z,30.70
2018-08-27T14:29:25.898Z,30.63
2018-08-27T14:31:54.841Z,30.63
2018-08-27T14:34:23.913Z,30.48
2018-08-27T14:36:52.989Z,30.24
2018-08-27T14:39:22.005Z,29.72
2018-08-27T14:41:50.972Z,29.48
2018-08-27T14:44:20.272Z,29.46
2018-08-27T14:46:49.230Z,29.34
2018-08-27T14:49:18.190Z,29.15
2018-08-27T14:51:47.393Z,28.86
2018-08-27T14:54:16.765Z,28.66
2018-08-27T14:56:46.466Z,28.47
2018-08-27T14:59:15.796Z,28.41
2018-08-27T15:01:47.954Z,28.40
2018-08-27T15:04:18.620Z,28.30
2018-08-27T15:06:47.919Z,28.32
2018-08-27T15:09:17.108Z,28.22
2018-08-27T15:11:46.207Z,28.26
2018-08-27T15:14:15.528Z,28.39
2018-08-27T15:16:44.800Z,28.48
2018-08-27T15:19:13.957Z,28.47
2018-08-27T15:21:42.966Z,28.34
2018-08-27T15:24:11.953Z,28.41
2018-08-27T15:26:40.957Z,28.44
2018-08-27T15:29:10.041Z,28.34
2018-08-27T15:31:39.151Z,28.19
2018-08-27T15:34:08.415Z,28.14
2018-08-27T15:36:37.587Z,28.09
2018-08-27T15:39:12.952Z,27.96
2018-08-27T15:41:41.918Z,27.98
2018-08-27T15:44:10.933Z,28.04
2018-08-27T15:46:42.554Z,27.97
2018-08-27T15:49:12.114Z,27.84
2018-08-27T15:51:41.590Z,27.73
2018-08-27T15:54:11.766Z,27.81
2018-08-27T15:56:41.496Z,27.83
2018-08-27T15:59:10.616Z,27.86
2018-08-27T16:01:39.637Z,27.70
2018-08-27T16:04:08.749Z,27.71
2018-08-27T16:06:37.792Z,27.63
2018-08-27T16:09:07.721Z,27.70
2018-08-27T16:11:36.878Z,27.72
2018-08-27T16:14:05.965Z,27.69
2018-08-27T16:16:35.004Z,27.75
2018-08-27T16:19:04.025Z,27.67
2018-08-27T16:21:32.997Z,27.66
2018-08-27T16:24:02.033Z,27.63
2018-08-27T16:26:31.086Z,27.52
2018-08-27T16:29:00.039Z,27.50
2018-08-27T16:31:28.993Z,27.47
2018-08-27T16:33:58.014Z,27.49
2018-08-27T16:36:27.017Z,27.29
2018-08-27T16:38:56.098Z,27.17
2018-08-27T16:41:25.135Z,27.09
2018-08-27T16:43:54.230Z,26.92
2018-08-27T16:46:23.240Z,26.64
2018-08-27T16:48:52.232Z,26.63
2018-08-27T16:51:21.233Z,26.30
2018-08-27T16:53:50.472Z,25.79
2018-08-27T16:56:19.569Z,25.27
2018-08-27T16:58:48.520Z,24.80
2018-08-27T17:01:17.625Z,24.41
2018-08-27T17:03:46.628Z,24.08
2018-08-27T17:06:15.689Z,23.81
2018-08-27T17:08:44.783Z,23.57
2018-08-27T17:11:13.764Z,23.41
2018-08-27T17:13:42.833Z,23.24
2018-08-27T17:16:11.870Z,23.11
2018-08-27T17:18:41.292Z,23.00
2018-08-27T17:21:10.276Z,22.91
2018-08-27T17:23:39.297Z,22.81
2018-08-27T17:26:08.276Z,22.76
2018-08-27T17:28:37.249Z,22.73
2018-08-27T17:31:06.365Z,22.69
2018-08-27T17:33:35.424Z,22.68
2018-08-27T17:36:04.506Z,22.67
2018-08-27T17:38:33.542Z,22.69
2018-08-27T17:41:05.505Z,22.72
2018-08-27T17:43:34.502Z,22.76
2018-08-27T17:46:03.526Z,22.75
2018-08-27T17:48:32.572Z,22.73
2018-08-27T17:51:01.632Z,22.74
2018-08-27T17:53:30.646Z,22.74
2018-08-27T17:55:59.663Z,22.77
2018-08-27T17:58:28.833Z,22.83
2018-08-27T18:00:57.930Z,22.85
2018-08-27T18:03:27.025Z,22.59
2018-08-27T18:05:56.067Z,22.86
2018-08-27T18:08:25.072Z,22.84
2018-08-27T18:10:54.025Z,22.87
2018-08-27T18:13:23.068Z,22.81
2018-08-27T18:15:52.043Z,22.81
2018-08-27T18:18:21.144Z,22.81
2018-08-27T18:20:50.217Z,22.80
2018-08-27T18:23:19.213Z,22.78
2018-08-27T18:25:48.192Z,22.76
2018-08-27T18:28:17.154Z,22.77
2018-08-27T18:30:46.189Z,22.79
2018-08-27T18:33:15.278Z,22.86
2018-08-27T18:35:44.462Z,22.78
2018-08-27T18:38:13.481Z,22.75
2018-08-27T18:40:42.504Z,22.72
2018-08-27T18:43:11.495Z,22.82
2018-08-27T18:45:40.597Z,22.84
2018-08-27T18:48:09.589Z,22.86
2018-08-27T18:50:38.672Z,22.93
2018-08-27T18:53:07.841Z,22.93
2018-08-27T18:55:36.855Z,22.94
2018-08-27T18:58:05.955Z,22.97
2018-08-27T19:00:35.118Z,23.03
2018-08-27T19:03:04.104Z,23.05
2018-08-27T19:05:33.088Z,23.03
2018-08-27T19:08:02.076Z,22.94
2018-08-27T19:10:31.144Z,22.84
2018-08-27T19:13:00.248Z,22.68
2018-08-27T19:15:29.265Z,22.61
2018-08-27T19:17:58.309Z,22.56
2018-08-27T19:20:27.272Z,22.49
2018-08-27T19:22:56.259Z,22.38
2018-08-27T19:25:25.240Z,22.32
2018-08-27T19:27:54.294Z,22.28
2018-08-27T19:30:23.426Z,22.09
2018-08-27T19:32:52.504Z,22.17
2018-08-27T19:35:21.559Z,22.12
2018-08-27T19:37:50.613Z,22.01
2018-08-27T19:40:19.693Z,21.96
2018-08-27T19:42:48.673Z,21.88
2018-08-27T19:45:17.857Z,21.81
2018-08-27T19:47:46.820Z,21.70
2018-08-27T19:50:15.926Z,21.67
2018-08-27T19:52:44.977Z,21.63
2018-08-27T19:55:14.019Z,21.59
2018-08-27T19:57:43.044Z,21.57
2018-08-27T20:00:12.024Z,21.50
2018-08-27T20:02:41.217Z,21.46
2018-08-27T20:05:10.477Z,21.46
2018-08-27T20:07:39.496Z,21.42
2018-08-27T20:10:08.550Z,21.36
2018-08-27T20:12:37.511Z,21.30
2018-08-27T20:15:06.537Z,21.23
2018-08-27T20:17:35.562Z,21.23
2018-08-27T20:20:04.584Z,21.24
2018-08-27T20:22:33.613Z,21.20
2018-08-27T20:25:02.559Z,21.20
2018-08-27T20:27:31.596Z,21.24
2018-08-27T20:30:00.554Z,21.22
2018-08-27T20:32:30.321Z,21.23
2018-08-27T20:34:59.288Z,21.22
2018-08-27T20:37:28.425Z,21.26
2018-08-27T20:39:57.389Z,21.28
2018-08-27T20:42:26.388Z,21.26
2018-08-27T20:44:55.361Z,21.25
2018-08-27T20:47:24.317Z,21.29
2018-08-27T20:49:53.364Z,21.27
2018-08-27T20:52:22.385Z,21.25
2018-08-27T20:54:51.460Z,21.31
2018-08-27T20:57:20.501Z,21.24
2018-08-27T20:59:49.501Z,21.20
2018-08-27T21:02:18.538Z,21.14
2018-08-27T21:04:47.561Z,21.08
2018-08-27T21:07:16.553Z,21.09
2018-08-27T21:09:45.542Z,21.09
2018-08-27T21:12:14.632Z,21.12
2018-08-27T21:15:00.685Z,21.09
2018-08-27T21:17:29.736Z,21.09
2018-08-27T21:19:58.684Z,21.09
2018-08-27T21:22:27.672Z,21.08
2018-08-27T21:24:56.703Z,21.07
2018-08-27T21:27:25.670Z,21.02
2018-08-27T21:29:55.444Z,20.98
2018-08-27T21:32:24.607Z,21.01
2018-08-27T21:34:53.917Z,21.04
2018-08-27T21:37:23.152Z,21.05
2018-08-27T21:39:52.397Z,21.05
2018-08-27T21:42:21.420Z,21.09
2018-08-27T21:44:50.450Z,21.08
2018-08-27T21:47:19.473Z,21.08
2018-08-27T21:49:48.554Z,21.04
2018-08-27T21:52:17.656Z,21.06
2018-08-27T21:54:46.689Z,21.14
2018-08-27T21:57:15.694Z,21.18
2018-08-27T21:59:44.671Z,21.19
2018-08-27T22:02:18.574Z,21.21
2018-08-27T22:04:47.576Z,21.27
2018-08-27T22:07:16.622Z,21.28
2018-08-27T22:09:45.686Z,21.30
2018-08-27T22:12:14.670Z,21.31
2018-08-27T22:14:43.639Z,21.32
2018-08-27T22:17:12.651Z,21.35
2018-08-27T22:19:41.709Z,21.33
2018-08-27T22:22:10.806Z,21.35
2018-08-27T22:24:39.860Z,21.38
2018-08-27T22:27:08.864Z,21.39
2018-08-27T22:29:37.832Z,21.39
2018-08-27T22:32:06.844Z,21.35
2018-08-27T22:34:35.872Z,21.37
2018-08-27T22:37:04.886Z,21.38
2018-08-27T22:39:34.545Z,21.34
2018-08-27T22:42:03.632Z,21.39
2018-08-27T22:44:32.684Z,21.37
2018-08-27T22:47:01.647Z,21.39
2018-08-27T22:49:30.592Z,21.39
2018-08-27T22:52:00.132Z,21.37
2018-08-27T22:54:29.320Z,21.39
2018-08-27T22:56:58.346Z,21.43
2018-08-27T22:59:27.300Z,21.41
2018-08-27T23:01:56.303Z,21.37
2018-08-27T23:04:30.216Z,21.40
2018-08-27T23:06:59.237Z,21.41
2018-08-27T23:09:28.221Z,21.28
2018-08-27T23:11:57.188Z,21.30
2018-08-27T23:14:26.285Z,21.26
2018-08-27T23:16:55.260Z,21.27
2018-08-27T23:19:24.220Z,21.23
2018-08-27T23:21:53.236Z,21.25
2018-08-27T23:24:22.204Z,21.23
2018-08-27T23:26:51.169Z,21.23
2018-08-27T23:29:20.119Z,21.20
2018-08-27T23:31:49.304Z,21.21
2018-08-27T23:34:18.360Z,21.23
2018-08-27T23:36:48.231Z,21.21
2018-08-27T23:39:17.293Z,21.21
2018-08-27T23:41:46.334Z,21.16
2018-08-27T23:44:15.304Z,21.12
2018-08-27T23:46:44.333Z,21.14
2018-08-27T23:49:13.466Z,21.16
2018-08-27T23:51:42.428Z,21.15
2018-08-27T23:54:11.442Z,21.17
2018-08-27T23:56:40.480Z,21.18
2018-08-27T23:59:09.489Z,21.11
